createdAt,value
2018-08-04T00:02:45.548Z,22.45
2018-08-04T00:05:43.577Z,22.43
2018-08-04T00:08:41.468Z,22.45
2018-08-04T00:11:39.495Z,22.41
2018-08-04T00:14:37.168Z,22.42
2018-08-04T00:17:34.395Z,22.28
2018-08-04T00:20:32.395Z,22.21
2018-08-04T00:23:30.457Z,22.01
2018-08-04T00:26:28.556Z,21.96
2018-08-04T00:29:26.378Z,21.87
2018-08-04T00:32:24.044Z,21.70
2018-08-04T00:35:21.132Z,21.65
2018-08-04T00:38:19.198Z,21.66
2018-08-04T00:41:17.309Z,21.70
2018-08-04T00:44:15.342Z,21.70
2018-08-04T00:47:12.439Z,21.68
2018-08-04T00:50:10.287Z,21.52
2018-08-04T00:53:08.284Z,21.39
2018-08-04T00:56:06.337Z,21.24
2018-08-04T00:59:04.121Z,21.22
2018-08-04T01:02:02.320Z,21.18
2018-08-04T01:04:59.354Z,21.31
2018-08-04T01:07:57.226Z,21.41
2018-08-04T01:10:55.188Z,21.52
2018-08-04T01:13:53.354Z,21.60
2018-08-04T01:16:51.143Z,21.67
2018-08-04T01:19:49.093Z,21.73
2018-08-04T01:22:46.955Z,21.74
2018-08-04T01:25:45.070Z,21.67
2018-08-04T01:28:43.356Z,21.73
2018-08-04T01:31:41.389Z,21.74
2018-08-04T01:34:39.435Z,21.72
2018-08-04T01:37:37.170Z,21.68
2018-08-04T01:40:35.187Z,21.63
2018-08-04T01:43:32.583Z,21.55
2018-08-04T01:46:29.769Z,21.54
2018-08-04T01:49:27.840Z,21.46
2018-08-04T01:52:24.962Z,21.49
2018-08-04T01:55:22.083Z,21.43
2018-08-04T01:58:20.033Z,21.37
2018-08-04T02:01:17.942Z,21.29
2018-08-04T02:04:16.044Z,21.28
2018-08-04T02:07:14.064Z,21.26
2018-08-04T02:10:12.009Z,21.20
2018-08-04T02:13:09.082Z,21.19
2018-08-04T02:16:06.215Z,21.14
2018-08-04T02:19:03.267Z,21.13
2018-08-04T02:22:00.622Z,21.04
2018-08-04T02:24:58.617Z,20.91
2018-08-04T02:27:56.740Z,20.86
2018-08-04T02:30:54.868Z,20.82
2018-08-04T02:33:52.817Z,20.80
2018-08-04T02:36:50.000Z,20.81
2018-08-04T02:39:47.979Z,20.78
2018-08-04T02:42:46.149Z,20.73
2018-08-04T02:45:44.349Z,20.64
2018-08-04T02:48:42.440Z,20.63
2018-08-04T02:51:40.176Z,20.61
2018-08-04T02:54:38.244Z,20.56
2018-08-04T02:57:35.649Z,20.53
2018-08-04T03:00:33.688Z,20.40
2018-08-04T03:03:31.439Z,20.36
2018-08-04T03:06:29.423Z,20.38
2018-08-04T03:09:29.519Z,20.37
2018-08-04T03:12:27.359Z,20.34
2018-08-04T03:15:25.057Z,20.31
2018-08-04T03:18:22.959Z,20.24
2018-08-04T03:21:20.891Z,20.22
2018-08-04T03:24:18.792Z,20.15
2018-08-04T03:27:15.867Z,20.16
2018-08-04T03:30:13.640Z,20.06
2018-08-04T03:33:11.476Z,20.05
2018-08-04T03:36:08.447Z,20.01
2018-08-04T03:39:06.107Z,20.02
2018-08-04T03:42:03.876Z,20.06
2018-08-04T03:45:01.827Z,20.06
2018-08-04T03:47:59.632Z,20.07
2018-08-04T03:50:57.296Z,20.11
2018-08-04T03:53:54.582Z,19.95
2018-08-04T03:56:52.415Z,19.92
2018-08-04T03:59:50.574Z,19.99
2018-08-04T04:02:47.715Z,20.01
2018-08-04T04:05:44.904Z,20.08
2018-08-04T04:08:42.072Z,20.07
2018-08-04T04:11:40.048Z,19.82
2018-08-04T04:14:38.048Z,19.82
2018-08-04T04:17:40.194Z,19.86
2018-08-04T04:20:37.443Z,20.10
2018-08-04T04:23:35.437Z,20.50
2018-08-04T04:26:33.403Z,20.56
2018-08-04T04:29:31.462Z,20.89
2018-08-04T04:32:29.588Z,21.30
2018-08-04T04:35:27.527Z,21.68
2018-08-04T04:38:25.260Z,21.54
2018-08-04T04:41:23.268Z,22.08
2018-08-04T04:44:21.317Z,22.72
2018-08-04T04:47:19.358Z,23.25
2018-08-04T04:50:16.604Z,23.46
2018-08-04T04:53:14.247Z,23.89
2018-08-04T04:56:12.221Z,24.34
2018-08-04T04:59:09.379Z,24.03
2018-08-04T05:02:07.556Z,24.09
2018-08-04T05:05:05.419Z,24.30
2018-08-04T05:08:03.504Z,24.71
2018-08-04T05:11:01.449Z,25.43
2018-08-04T05:13:58.540Z,25.84
2018-08-04T05:16:55.747Z,25.72
2018-08-04T05:19:53.140Z,25.02
2018-08-04T05:22:51.227Z,24.54
2018-08-04T05:25:49.185Z,24.09
2018-08-04T05:28:47.166Z,23.54
2018-08-04T05:31:45.244Z,23.58
2018-08-04T05:34:42.927Z,23.27
2018-08-04T05:37:40.895Z,23.05
2018-08-04T05:40:38.952Z,23.09
2018-08-04T05:43:37.181Z,23.28
2018-08-04T05:46:35.049Z,23.00
2018-08-04T05:49:33.212Z,23.14
2018-08-04T05:52:31.176Z,23.03
2018-08-04T05:55:29.270Z,22.66
2018-08-04T05:58:26.424Z,22.68
2018-08-04T06:01:24.323Z,22.70
2018-08-04T06:04:22.402Z,22.70
2018-08-04T06:07:19.680Z,22.61
2018-08-04T06:10:17.675Z,22.70
2018-08-04T06:13:15.636Z,22.74
2018-08-04T06:16:13.751Z,22.69
2018-08-04T06:19:10.900Z,22.82
2018-08-04T06:22:08.739Z,22.65
2018-08-04T06:25:05.822Z,23.17
2018-08-04T06:28:03.548Z,23.95
2018-08-04T06:31:00.860Z,23.81
2018-08-04T06:33:58.859Z,23.91
2018-08-04T06:36:56.791Z,24.23
2018-08-04T06:39:54.676Z,24.62
2018-08-04T06:42:52.753Z,24.74
2018-08-04T06:45:50.817Z,24.74
2018-08-04T06:48:48.899Z,24.98
2018-08-04T06:51:47.074Z,26.04
2018-08-04T06:54:44.932Z,27.42
2018-08-04T06:57:42.789Z,28.29
2018-08-04T07:00:40.633Z,28.20
2018-08-04T07:03:37.851Z,27.79
2018-08-04T07:06:35.697Z,28.21
2018-08-04T07:09:35.855Z,27.91
2018-08-04T07:12:33.737Z,28.05
2018-08-04T07:15:31.887Z,29.04
2018-08-04T07:18:28.863Z,29.87
2018-08-04T07:21:26.836Z,29.46
2018-08-04T07:24:24.691Z,30.35
2018-08-04T07:27:21.925Z,30.69
2018-08-04T07:30:21.991Z,31.09
2018-08-04T07:33:19.831Z,30.40
2018-08-04T07:36:18.038Z,31.27
2018-08-04T07:39:16.855Z,31.07
2018-08-04T07:42:14.294Z,30.24
2018-08-04T07:45:12.353Z,30.36
2018-08-04T07:48:10.377Z,30.29
2018-08-04T07:51:08.290Z,29.54
2018-08-04T07:54:06.378Z,29.99
2018-08-04T07:57:04.274Z,29.72
2018-08-04T08:00:02.252Z,30.04
2018-08-04T08:03:00.307Z,31.17
2018-08-04T08:05:57.939Z,31.15
2018-08-04T08:08:55.879Z,32.72
2018-08-04T08:11:53.082Z,33.06
2018-08-04T08:14:51.184Z,34.71
2018-08-04T08:17:49.126Z,36.03
2018-08-04T08:20:46.994Z,36.51
2018-08-04T08:23:44.054Z,35.93
2018-08-04T08:26:42.143Z,35.81
2018-08-04T08:29:39.259Z,34.99
2018-08-04T08:32:37.098Z,34.62
2018-08-04T08:35:35.079Z,35.00
2018-08-04T08:38:32.145Z,34.73
2018-08-04T08:41:30.355Z,34.01
2018-08-04T08:44:28.359Z,33.93
2018-08-04T08:47:25.468Z,33.77
2018-08-04T08:50:24.420Z,33.99
2018-08-04T08:53:22.508Z,34.03
2018-08-04T08:56:20.692Z,33.99
2018-08-04T08:59:17.884Z,34.77
2018-08-04T09:02:15.073Z,34.71
2018-08-04T09:05:13.356Z,34.57
2018-08-04T09:08:11.283Z,35.67
2018-08-04T09:11:08.326Z,36.94
2018-08-04T09:14:06.307Z,37.02
2018-08-04T09:17:04.249Z,36.57
2018-08-04T09:20:02.133Z,36.30
2018-08-04T09:23:00.164Z,37.03
2018-08-04T09:25:57.655Z,36.17
2018-08-04T09:28:55.713Z,37.09
2018-08-04T09:31:53.520Z,37.75
2018-08-04T09:34:50.932Z,36.54
2018-08-04T09:37:48.848Z,36.17
2018-08-04T09:40:46.331Z,36.29
2018-08-04T09:43:43.947Z,36.88
2018-08-04T09:46:41.339Z,37.06
2018-08-04T09:49:39.493Z,37.80
2018-08-04T09:52:36.826Z,35.57
2018-08-04T09:55:33.973Z,36.58
2018-08-04T09:58:31.563Z,35.99
2018-08-04T10:01:35.783Z,35.47
2018-08-04T10:04:33.886Z,36.23
2018-08-04T10:07:31.943Z,35.69
2018-08-04T10:10:29.943Z,34.77
2018-08-04T10:13:28.039Z,33.27
2018-08-04T10:16:25.879Z,31.81
2018-08-04T10:19:23.804Z,31.67
2018-08-04T10:22:21.784Z,31.44
2018-08-04T10:25:19.473Z,31.40
2018-08-04T10:28:16.650Z,31.67
2018-08-04T10:31:14.540Z,31.69
2018-08-04T10:34:12.689Z,31.35
2018-08-04T10:37:10.444Z,31.77
2018-08-04T10:40:07.813Z,31.36
2018-08-04T10:43:05.081Z,31.70
2018-08-04T10:46:02.735Z,32.49
2018-08-04T10:49:00.568Z,32.72
2018-08-04T10:51:58.175Z,34.77
2018-08-04T10:54:55.631Z,35.39
2018-08-04T10:57:53.639Z,35.82
2018-08-04T11:00:51.712Z,36.88
2018-08-04T11:03:49.328Z,36.08
2018-08-04T11:06:47.347Z,36.53
2018-08-04T11:09:45.343Z,36.18
2018-08-04T11:12:42.602Z,36.88
2018-08-04T11:15:40.675Z,35.66
2018-08-04T11:18:38.516Z,35.40
2018-08-04T11:21:36.645Z,35.71
2018-08-04T11:24:34.339Z,36.18
2018-08-04T11:27:32.439Z,36.63
2018-08-04T11:30:31.256Z,34.64
2018-08-04T11:33:29.223Z,35.17
2018-08-04T11:36:27.105Z,35.64
2018-08-04T11:39:25.263Z,34.41
2018-08-04T11:42:23.339Z,33.68
2018-08-04T11:45:21.311Z,33.04
2018-08-04T11:48:18.583Z,32.45
2018-08-04T11:51:16.506Z,31.93
2018-08-04T11:54:13.980Z,32.18
2018-08-04T11:57:11.458Z,32.18
2018-08-04T12:00:08.444Z,31.69
2018-08-04T12:03:06.113Z,31.88
2018-08-04T12:06:03.236Z,32.10
2018-08-04T12:09:00.708Z,32.14
2018-08-04T12:11:57.933Z,31.87
2018-08-04T12:14:55.411Z,31.77
2018-08-04T12:17:52.890Z,31.91
2018-08-04T12:20:50.033Z,31.98
2018-08-04T12:23:47.277Z,31.89
2018-08-04T12:26:45.355Z,31.92
2018-08-04T12:29:43.135Z,32.02
2018-08-04T12:32:41.232Z,31.76
2018-08-04T12:35:39.148Z,31.94
2018-08-04T12:38:37.071Z,32.03
2018-08-04T12:41:34.314Z,32.09
2018-08-04T12:44:32.422Z,32.18
2018-08-04T12:47:30.478Z,31.87
2018-08-04T12:50:28.249Z,31.54
2018-08-04T12:53:26.325Z,31.62
2018-08-04T12:56:24.279Z,32.03
2018-08-04T12:59:21.964Z,31.90
2018-08-04T13:02:19.944Z,31.89
2018-08-04T13:05:17.421Z,31.69
2018-08-04T13:08:14.564Z,32.21
2018-08-04T13:11:11.850Z,32.38
2018-08-04T13:14:09.255Z,31.95
2018-08-04T13:17:06.329Z,32.11
2018-08-04T13:20:03.491Z,31.98
2018-08-04T13:23:01.054Z,31.97
2018-08-04T13:25:58.606Z,31.94
2018-08-04T13:28:56.286Z,32.06
2018-08-04T13:31:54.416Z,31.95
2018-08-04T13:34:52.340Z,31.80
2018-08-04T13:37:50.009Z,31.90
2018-08-04T13:40:47.877Z,31.79
2018-08-04T13:43:45.519Z,32.03
2018-08-04T13:46:50.871Z,31.83
2018-08-04T13:49:48.226Z,31.99
2018-08-04T13:52:46.213Z,31.87
2018-08-04T13:55:43.419Z,32.01
2018-08-04T13:58:41.494Z,32.15
2018-08-04T14:01:39.472Z,31.91
2018-08-04T14:04:37.656Z,31.61
2018-08-04T14:07:35.687Z,31.72
2018-08-04T14:10:32.723Z,31.92
2018-08-04T14:13:30.359Z,31.96
2018-08-04T14:16:27.753Z,31.89
2018-08-04T14:19:24.971Z,31.96
2018-08-04T14:22:22.264Z,32.28
2018-08-04T14:25:19.928Z,32.13
2018-08-04T14:28:17.187Z,31.75
2018-08-04T14:31:14.555Z,31.47
2018-08-04T14:34:11.915Z,31.60
2018-08-04T14:37:09.098Z,32.00
2018-08-04T14:40:06.539Z,31.93
2018-08-04T14:43:03.819Z,32.10
2018-08-04T14:46:01.342Z,31.98
2018-08-04T14:48:59.276Z,32.04
2018-08-04T14:51:57.275Z,31.63
2018-08-04T14:54:55.191Z,31.36
2018-08-04T14:57:53.150Z,31.62
2018-08-04T15:00:50.395Z,31.66
2018-08-04T15:03:48.605Z,31.58
2018-08-04T15:06:46.568Z,31.75
2018-08-04T15:09:43.802Z,31.61
2018-08-04T15:12:41.984Z,31.72
2018-08-04T15:15:39.907Z,31.62
2018-08-04T15:18:37.746Z,31.81
2018-08-04T15:21:34.937Z,31.91
2018-08-04T15:24:32.367Z,31.78
2018-08-04T15:27:30.174Z,32.02
2018-08-04T15:30:27.702Z,32.05
2018-08-04T15:33:25.056Z,32.13
2018-08-04T15:36:22.198Z,31.76
2018-08-04T15:39:21.454Z,31.95
2018-08-04T15:42:18.478Z,31.59
2018-08-04T15:45:15.651Z,31.34
2018-08-04T15:48:13.080Z,31.41
2018-08-04T15:51:10.351Z,31.65
2018-08-04T15:54:07.789Z,31.72
2018-08-04T15:57:04.939Z,31.61
2018-08-04T16:00:01.965Z,31.73
2018-08-04T16:03:00.092Z,31.70
2018-08-04T16:05:57.969Z,31.81
2018-08-04T16:08:56.808Z,31.79
2018-08-04T16:11:54.019Z,31.66
2018-08-04T16:14:52.111Z,31.52
2018-08-04T16:17:50.227Z,31.42
2018-08-04T16:20:48.128Z,31.45
2018-08-04T16:23:46.123Z,31.14
2018-08-04T16:26:44.042Z,30.79
2018-08-04T16:29:41.167Z,30.65
2018-08-04T16:32:38.395Z,30.53
2018-08-04T16:35:36.383Z,30.53
2018-08-04T16:38:33.523Z,30.51
2018-08-04T16:41:31.140Z,30.40
2018-08-04T16:44:28.256Z,30.41
2018-08-04T16:47:25.586Z,30.32
2018-08-04T16:50:23.568Z,30.22
2018-08-04T16:53:20.974Z,30.11
2018-08-04T16:56:17.981Z,29.99
2018-08-04T16:59:15.619Z,29.95
2018-08-04T17:02:12.955Z,29.97
2018-08-04T17:05:10.604Z,29.89
2018-08-04T17:08:07.771Z,29.68
2018-08-04T17:11:04.986Z,29.62
2018-08-04T17:14:02.868Z,29.73
2018-08-04T17:17:00.863Z,29.81
2018-08-04T17:19:58.929Z,29.76
2018-08-04T17:22:57.008Z,29.77
2018-08-04T17:25:54.383Z,29.74
2018-08-04T17:28:52.316Z,29.78
2018-08-04T17:31:50.213Z,29.61
2018-08-04T17:34:47.367Z,29.49
2018-08-04T17:37:45.607Z,29.31
2018-08-04T17:40:43.639Z,29.19
2018-08-04T17:43:40.558Z,29.01
2018-08-04T17:46:37.816Z,29.01
2018-08-04T17:49:35.388Z,28.96
2018-08-04T17:52:32.328Z,28.97
2018-08-04T17:55:29.551Z,28.88
2018-08-04T17:58:26.947Z,28.83
2018-08-04T18:01:24.623Z,28.73
2018-08-04T18:04:22.388Z,28.68
2018-08-04T18:07:19.666Z,28.50
2018-08-04T18:10:17.044Z,28.38
2018-08-04T18:13:15.107Z,28.21
2018-08-04T18:16:13.107Z,28.21
2018-08-04T18:19:10.527Z,28.13
2018-08-04T18:22:07.776Z,28.10
2018-08-04T18:25:05.659Z,28.02
2018-08-04T18:28:03.740Z,27.99
2018-08-04T18:31:00.972Z,27.88
2018-08-04T18:33:58.140Z,27.82
2018-08-04T18:36:55.591Z,27.77
2018-08-04T18:39:52.950Z,27.73
2018-08-04T18:42:49.996Z,27.66
2018-08-04T18:45:47.871Z,27.65
2018-08-04T18:48:44.957Z,27.64
2018-08-04T18:51:43.055Z,27.42
2018-08-04T18:54:40.383Z,27.43
2018-08-04T18:57:37.622Z,27.39
2018-08-04T19:00:34.898Z,27.22
2018-08-04T19:03:32.409Z,27.00
2018-08-04T19:06:29.664Z,26.93
2018-08-04T19:09:29.710Z,26.84
2018-08-04T19:12:26.771Z,26.82
2018-08-04T19:15:24.173Z,26.69
2018-08-04T19:18:21.643Z,26.62
2018-08-04T19:21:19.114Z,26.56
2018-08-04T19:24:16.138Z,26.52
2018-08-04T19:27:14.120Z,26.41
2018-08-04T19:30:11.780Z,26.32
2018-08-04T19:33:08.894Z,26.25
2018-08-04T19:36:07.060Z,26.11
2018-08-04T19:39:05.062Z,26.04
2018-08-04T19:42:03.070Z,25.90
2018-08-04T19:45:01.125Z,25.83
2018-08-04T19:47:58.584Z,25.78
2018-08-04T19:50:55.760Z,25.72
2018-08-04T19:53:52.801Z,25.71
2018-08-04T19:56:50.860Z,25.61
2018-08-04T19:59:47.967Z,25.58
2018-08-04T20:02:45.575Z,25.55
2018-08-04T20:05:43.362Z,25.47
2018-08-04T20:08:41.316Z,25.37
2018-08-04T20:11:39.444Z,25.27
2018-08-04T20:14:36.897Z,25.23
2018-08-04T20:17:34.212Z,25.14
2018-08-04T20:20:31.400Z,25.08
2018-08-04T20:23:29.000Z,25.06
2018-08-04T20:26:26.124Z,25.08
2018-08-04T20:29:24.361Z,25.06
2018-08-04T20:32:21.864Z,24.92
2018-08-04T20:35:19.325Z,24.71
2018-08-04T20:38:16.537Z,24.56
2018-08-04T20:41:14.663Z,24.42
2018-08-04T20:44:12.636Z,24.33
2018-08-04T20:47:10.835Z,24.29
2018-08-04T20:50:08.880Z,24.14
2018-08-04T20:53:06.302Z,24.18
2018-08-04T20:56:03.843Z,24.13
2018-08-04T20:59:01.668Z,24.09
2018-08-04T21:02:33.280Z,24.04
2018-08-04T21:05:30.459Z,23.93
2018-08-04T21:08:27.853Z,23.92
2018-08-04T21:11:25.848Z,23.88
2018-08-04T21:14:23.715Z,23.69
2018-08-04T21:17:20.856Z,23.61
2018-08-04T21:20:18.535Z,23.59
2018-08-04T21:23:15.597Z,23.38
2018-08-04T21:26:13.044Z,23.37
2018-08-04T21:29:10.289Z,23.24
2018-08-04T21:32:07.949Z,23.14
2018-08-04T21:35:05.631Z,23.13
2018-08-04T21:38:02.715Z,23.10
2018-08-04T21:40:59.872Z,23.11
2018-08-04T21:43:57.205Z,22.93
2018-08-04T21:46:57.499Z,22.91
2018-08-04T21:49:54.854Z,22.75
2018-08-04T21:52:51.828Z,22.67
2018-08-04T21:55:49.821Z,22.58
2018-08-04T21:58:47.907Z,22.58
2018-08-04T22:01:45.889Z,22.50
2018-08-04T22:04:43.729Z,22.45
2018-08-04T22:08:02.056Z,22.31
2018-08-04T22:11:00.086Z,22.26
2018-08-04T22:13:57.531Z,22.13
2018-08-04T22:16:54.880Z,22.09
2018-08-04T22:19:52.110Z,21.97
2018-08-04T22:22:49.191Z,21.98
2018-08-04T22:25:47.234Z,21.99
2018-08-04T22:28:44.232Z,21.93
2018-08-04T22:31:41.669Z,21.94
2018-08-04T22:34:39.360Z,21.85
2018-08-04T22:37:36.976Z,21.94
2018-08-04T22:40:34.536Z,21.88
2018-08-04T22:43:31.926Z,21.84
2018-08-04T22:46:31.981Z,21.79
2018-08-04T22:49:29.120Z,21.71
2018-08-04T22:52:27.195Z,21.53
2018-08-04T22:55:24.376Z,21.55
2018-08-04T22:58:22.252Z,21.63
2018-08-04T23:01:19.538Z,21.57
2018-08-04T23:04:17.598Z,21.57
2018-08-04T23:07:15.640Z,21.55
2018-08-04T23:10:13.811Z,21.46
2018-08-04T23:13:11.770Z,21.29
2018-08-04T23:16:09.882Z,21.38
2018-08-04T23:19:07.947Z,21.42
2018-08-04T23:22:06.114Z,21.36
2018-08-04T23:25:04.012Z,21.36
2018-08-04T23:28:01.936Z,21.34
2018-08-04T23:30:59.537Z,21.38
2018-08-04T23:33:57.195Z,21.43
2018-08-04T23:36:54.465Z,21.31
2018-08-04T23:39:51.999Z,21.26
2018-08-04T23:42:50.011Z,21.24
2018-08-04T23:45:47.932Z,21.26
2018-08-04T23:48:45.147Z,21.20
2018-08-04T23:51:42.692Z,21.16
2018-08-04T23:54:40.047Z,21.08
2018-08-04T23:57:38.111Z,21.02
